sensor_id;sensor_type;location;lat;lon;timestamp;pressure;altitude;pressure_sealevel;temperature;humidity
70488;BME280;57976;48.174;16.370;2023-07-31T00:01:33;99100.67;;;20.46;78.09
70488;BME280;57976;48.174;16.370;2023-07-31T00:03:41;99092.77;;;20.44;78.57
70488;BME280;57976;48.174;16.370;2023-07-31T00:05:46;99092.05;;;20.42;78.87
70488;BME280;57976;48.174;16.370;2023-07-31T00:07:52;99095.90;;;20.40;78.88
70488;BME280;57976;48.174;16.370;2023-07-31T00:09:57;99097.52;;;20.39;78.60
70488;BME280;57976;48.174;16.370;2023-07-31T00:12:03;99092.70;;;20.36;78.72
70488;BME280;57976;48.174;16.370;2023-07-31T00:14:11;99098.23;;;20.34;78.95
70488;BME280;57976;48.174;16.370;2023-07-31T00:16:16;99105.63;;;20.33;78.89
70488;BME280;57976;48.174;16.370;2023-07-31T00:18:22;99101.30;;;20.31;78.92
70488;BME280;57976;48.174;16.370;2023-07-31T00:20:30;99100.64;;;20.30;78.72
70488;BME280;57976;48.174;16.370;2023-07-31T00:22:38;99099.73;;;20.28;78.86
70488;BME280;57976;48.174;16.370;2023-07-31T00:24:44;99103.19;;;20.26;78.70
70488;BME280;57976;48.174;16.370;2023-07-31T00:26:51;99104.59;;;20.23;78.89
70488;BME280;57976;48.174;16.370;2023-07-31T00:28:57;99108.04;;;20.22;79.20
70488;BME280;57976;48.174;16.370;2023-07-31T00:31:03;99114.59;;;20.20;78.63
70488;BME280;57976;48.174;16.370;2023-07-31T00:33:08;99117.44;;;20.19;78.35
70488;BME280;57976;48.174;16.370;2023-07-31T00:35:15;99108.02;;;20.16;78.65
70488;BME280;57976;48.174;16.370;2023-07-31T00:37:21;99102.55;;;20.12;78.96
70488;BME280;57976;48.174;16.370;2023-07-31T00:39:31;99102.65;;;20.12;79.00
70488;BME280;57976;48.174;16.370;2023-07-31T00:41:37;99101.84;;;20.11;79.02
70488;BME280;57976;48.174;16.370;2023-07-31T00:43:42;99097.63;;;20.10;79.23
70488;BME280;57976;48.174;16.370;2023-07-31T00:45:47;99095.77;;;20.11;79.51
70488;BME280;57976;48.174;16.370;2023-07-31T00:47:53;99094.38;;;20.10;79.69
70488;BME280;57976;48.174;16.370;2023-07-31T00:49:58;99097.30;;;20.09;79.54
70488;BME280;57976;48.174;16.370;2023-07-31T00:52:06;99095.30;;;20.07;79.90
70488;BME280;57976;48.174;16.370;2023-07-31T00:54:12;99105.46;;;20.06;80.13
70488;BME280;57976;48.174;16.370;2023-07-31T00:56:17;99105.44;;;20.03;80.05
70488;BME280;57976;48.174;16.370;2023-07-31T00:58:28;99103.13;;;20.00;80.37
70488;BME280;57976;48.174;16.370;2023-07-31T01:00:35;99108.20;;;19.99;80.48
70488;BME280;57976;48.174;16.370;2023-07-31T01:05:28;99101.86;;;19.96;80.71
70488;BME280;57976;48.174;16.370;2023-07-31T01:07:45;99102.82;;;19.89;80.63
70488;BME280;57976;48.174;16.370;2023-07-31T01:09:58;99100.80;;;19.83;80.84
70488;BME280;57976;48.174;16.370;2023-07-31T01:12:14;99102.08;;;19.77;80.92
70488;BME280;57976;48.174;16.370;2023-07-31T01:14:22;99100.52;;;19.72;81.17
70488;BME280;57976;48.174;16.370;2023-07-31T01:16:28;99100.65;;;19.68;81.21
70488;BME280;57976;48.174;16.370;2023-07-31T01:18:36;99099.23;;;19.65;81.46
70488;BME280;57976;48.174;16.370;2023-07-31T01:20:43;99096.14;;;19.61;81.64
70488;BME280;57976;48.174;16.370;2023-07-31T01:23:22;99095.58;;;19.59;81.87
70488;BME280;57976;48.174;16.370;2023-07-31T01:25:50;99096.39;;;19.56;81.82
70488;BME280;57976;48.174;16.370;2023-07-31T01:28:02;99097.61;;;19.53;81.90
70488;BME280;57976;48.174;16.370;2023-07-31T01:30:14;99094.91;;;19.52;82.46
70488;BME280;57976;48.174;16.370;2023-07-31T01:32:23;99102.73;;;19.53;82.54
70488;BME280;57976;48.174;16.370;2023-07-31T01:34:29;99101.17;;;19.50;82.44
70488;BME280;57976;48.174;16.370;2023-07-31T01:36:36;99102.78;;;19.49;82.62
70488;BME280;57976;48.174;16.370;2023-07-31T01:38:41;99106.84;;;19.47;82.67
70488;BME280;57976;48.174;16.370;2023-07-31T01:40:46;99107.41;;;19.46;82.86
70488;BME280;57976;48.174;16.370;2023-07-31T01:42:55;99103.74;;;19.46;83.07
70488;BME280;57976;48.174;16.370;2023-07-31T01:45:01;99101.14;;;19.45;82.97
70488;BME280;57976;48.174;16.370;2023-07-31T01:47:09;99104.28;;;19.45;83.34
70488;BME280;57976;48.174;16.370;2023-07-31T01:49:14;99103.14;;;19.45;83.21
70488;BME280;57976;48.174;16.370;2023-07-31T01:51:21;99104.60;;;19.43;83.39
70488;BME280;57976;48.174;16.370;2023-07-31T01:53:26;99103.05;;;19.44;83.74
70488;BME280;57976;48.174;16.370;2023-07-31T01:55:31;99106.34;;;19.46;83.71
70488;BME280;57976;48.174;16.370;2023-07-31T01:57:36;99108.45;;;19.46;83.69
70488;BME280;57976;48.174;16.370;2023-07-31T01:59:43;99109.64;;;19.48;83.52
70488;BME280;57976;48.174;16.370;2023-07-31T02:01:48;99109.85;;;19.48;83.69
70488;BME280;57976;48.174;16.370;2023-07-31T02:03:54;99110.89;;;19.48;83.80
70488;BME280;57976;48.174;16.370;2023-07-31T02:06:00;99110.02;;;19.48;83.73
70488;BME280;57976;48.174;16.370;2023-07-31T02:08:04;99113.98;;;19.48;83.75
70488;BME280;57976;48.174;16.370;2023-07-31T02:10:10;99116.14;;;19.47;83.67
70488;BME280;57976;48.174;16.370;2023-07-31T02:12:15;99118.00;;;19.42;83.78
70488;BME280;57976;48.174;16.370;2023-07-31T02:14:23;99122.52;;;19.39;84.08
70488;BME280;57976;48.174;16.370;2023-07-31T02:16:28;99123.09;;;19.36;84.46
70488;BME280;57976;48.174;16.370;2023-07-31T02:18:32;99121.70;;;19.31;84.61
70488;BME280;57976;48.174;16.370;2023-07-31T02:20:40;99124.23;;;19.30;84.91
70488;BME280;57976;48.174;16.370;2023-07-31T02:22:45;99125.35;;;19.28;85.17
70488;BME280;57976;48.174;16.370;2023-07-31T02:24:50;99131.71;;;19.26;84.97
70488;BME280;57976;48.174;16.370;2023-07-31T02:26:59;99133.00;;;19.24;85.46
70488;BME280;57976;48.174;16.370;2023-07-31T02:29:03;99131.05;;;19.22;85.83
70488;BME280;57976;48.174;16.370;2023-07-31T02:31:08;99132.28;;;19.20;85.69
70488;BME280;57976;48.174;16.370;2023-07-31T02:33:14;99132.59;;;19.20;85.78
70488;BME280;57976;48.174;16.370;2023-07-31T02:35:20;99133.13;;;19.18;86.06
70488;BME280;57976;48.174;16.370;2023-07-31T02:37:28;99133.70;;;19.17;86.25
70488;BME280;57976;48.174;16.370;2023-07-31T02:39:32;99131.54;;;19.14;86.10
70488;BME280;57976;48.174;16.370;2023-07-31T02:41:37;99134.23;;;19.13;86.13
70488;BME280;57976;48.174;16.370;2023-07-31T02:43:45;99133.79;;;19.12;86.27
70488;BME280;57976;48.174;16.370;2023-07-31T02:45:54;99131.13;;;19.11;86.65
70488;BME280;57976;48.174;16.370;2023-07-31T02:48:01;99130.20;;;19.09;86.72
70488;BME280;57976;48.174;16.370;2023-07-31T02:50:07;99131.39;;;19.09;86.47
70488;BME280;57976;48.174;16.370;2023-07-31T02:52:12;99132.78;;;19.07;86.65
70488;BME280;57976;48.174;16.370;2023-07-31T02:54:19;99137.48;;;19.08;86.91
70488;BME280;57976;48.174;16.370;2023-07-31T02:56:25;99139.39;;;19.08;87.06
70488;BME280;57976;48.174;16.370;2023-07-31T02:58:33;99140.68;;;19.08;87.24
70488;BME280;57976;48.174;16.370;2023-07-31T03:00:43;99139.91;;;19.06;87.44
70488;BME280;57976;48.174;16.370;2023-07-31T03:02:48;99142.23;;;19.07;87.43
70488;BME280;57976;48.174;16.370;2023-07-31T03:04:56;99139.32;;;19.07;87.52
70488;BME280;57976;48.174;16.370;2023-07-31T03:07:01;99144.40;;;19.08;87.67
70488;BME280;57976;48.174;16.370;2023-07-31T03:09:06;99146.52;;;19.07;87.42
70488;BME280;57976;48.174;16.370;2023-07-31T03:11:11;99144.75;;;19.04;87.63
70488;BME280;57976;48.174;16.370;2023-07-31T03:13:16;99147.22;;;19.00;87.71
70488;BME280;57976;48.174;16.370;2023-07-31T03:15:20;99145.84;;;18.98;87.98
70488;BME280;57976;48.174;16.370;2023-07-31T03:17:25;99148.20;;;18.94;88.15
70488;BME280;57976;48.174;16.370;2023-07-31T03:19:32;99150.47;;;18.95;88.66
70488;BME280;57976;48.174;16.370;2023-07-31T03:21:38;99150.20;;;18.94;88.66
70488;BME280;57976;48.174;16.370;2023-07-31T03:23:43;99151.64;;;18.93;88.85
70488;BME280;57976;48.174;16.370;2023-07-31T03:25:58;99155.05;;;18.95;88.99
70488;BME280;57976;48.174;16.370;2023-07-31T03:28:06;99152.42;;;18.95;89.26
70488;BME280;57976;48.174;16.370;2023-07-31T03:30:12;99152.36;;;18.95;89.25
70488;BME280;57976;48.174;16.370;2023-07-31T03:32:17;99155.48;;;18.94;89.40
70488;BME280;57976;48.174;16.370;2023-07-31T03:34:22;99153.38;;;18.95;89.98
70488;BME280;57976;48.174;16.370;2023-07-31T03:36:27;99149.95;;;18.98;90.32
70488;BME280;57976;48.174;16.370;2023-07-31T03:43:40;99155.27;;;19.02;90.95
70488;BME280;57976;48.174;16.370;2023-07-31T03:45:45;99155.45;;;18.97;91.00
70488;BME280;57976;48.174;16.370;2023-07-31T03:47:49;99158.19;;;18.95;91.86
70488;BME280;57976;48.174;16.370;2023-07-31T03:49:54;99157.73;;;18.92;92.48
70488;BME280;57976;48.174;16.370;2023-07-31T03:51:59;99157.66;;;18.90;93.09
70488;BME280;57976;48.174;16.370;2023-07-31T03:54:03;99156.89;;;18.88;93.13
70488;BME280;57976;48.174;16.370;2023-07-31T03:56:08;99161.17;;;18.89;93.28
70488;BME280;57976;48.174;16.370;2023-07-31T03:58:13;99165.01;;;18.90;94.06
70488;BME280;57976;48.174;16.370;2023-07-31T04:00:18;99168.79;;;18.91;94.43
70488;BME280;57976;48.174;16.370;2023-07-31T04:02:23;99169.06;;;18.91;95.05
70488;BME280;57976;48.174;16.370;2023-07-31T04:04:27;99164.73;;;18.90;95.68
70488;BME280;57976;48.174;16.370;2023-07-31T04:06:32;99165.77;;;18.90;95.53
70488;BME280;57976;48.174;16.370;2023-07-31T04:08:37;99166.63;;;18.91;95.92
70488;BME280;57976;48.174;16.370;2023-07-31T04:10:41;99168.64;;;18.93;96.32
70488;BME280;57976;48.174;16.370;2023-07-31T04:12:46;99170.61;;;18.95;96.64
70488;BME280;57976;48.174;16.370;2023-07-31T04:14:51;99169.05;;;18.97;96.58
70488;BME280;57976;48.174;16.370;2023-07-31T04:16:56;99161.95;;;18.98;96.81
70488;BME280;57976;48.174;16.370;2023-07-31T04:19:00;99160.98;;;19.02;96.83
70488;BME280;57976;48.174;16.370;2023-07-31T04:21:05;99160.27;;;19.05;96.69
70488;BME280;57976;48.174;16.370;2023-07-31T04:23:10;99159.30;;;19.08;96.64
70488;BME280;57976;48.174;16.370;2023-07-31T04:25:15;99155.61;;;19.11;96.57
70488;BME280;57976;48.174;16.370;2023-07-31T04:27:19;99153.63;;;19.14;96.65
70488;BME280;57976;48.174;16.370;2023-07-31T04:29:24;99148.17;;;19.17;96.14
70488;BME280;57976;48.174;16.370;2023-07-31T04:31:29;99143.88;;;19.19;96.10
70488;BME280;57976;48.174;16.370;2023-07-31T04:33:33;99139.23;;;19.21;95.65
70488;BME280;57976;48.174;16.370;2023-07-31T04:35:38;99143.05;;;19.24;95.39
70488;BME280;57976;48.174;16.370;2023-07-31T04:37:43;99148.29;;;19.25;94.87
70488;BME280;57976;48.174;16.370;2023-07-31T04:39:47;99147.72;;;19.29;94.54
70488;BME280;57976;48.174;16.370;2023-07-31T04:41:52;99155.34;;;19.29;94.33
70488;BME280;57976;48.174;16.370;2023-07-31T04:43:57;99154.98;;;19.33;93.89
70488;BME280;57976;48.174;16.370;2023-07-31T04:46:02;99149.64;;;19.33;93.59
70488;BME280;57976;48.174;16.370;2023-07-31T04:48:07;99149.17;;;19.35;93.31
70488;BME280;57976;48.174;16.370;2023-07-31T04:50:12;99148.61;;;19.38;92.89
70488;BME280;57976;48.174;16.370;2023-07-31T04:52:16;99153.05;;;19.40;92.29
70488;BME280;57976;48.174;16.370;2023-07-31T04:54:21;99155.23;;;19.42;91.79
70488;BME280;57976;48.174;16.370;2023-07-31T04:56:29;99161.29;;;19.42;91.63
70488;BME280;57976;48.174;16.370;2023-07-31T04:58:34;99168.77;;;19.46;91.42
70488;BME280;57976;48.174;16.370;2023-07-31T05:00:39;99169.21;;;19.48;90.93
70488;BME280;57976;48.174;16.370;2023-07-31T05:02:44;99172.98;;;19.49;90.48
70488;BME280;57976;48.174;16.370;2023-07-31T05:04:49;99163.00;;;19.51;90.36
70488;BME280;57976;48.174;16.370;2023-07-31T05:06:53;99161.44;;;19.54;89.99
70488;BME280;57976;48.174;16.370;2023-07-31T05:08:58;99164.21;;;19.56;89.77
70488;BME280;57976;48.174;16.370;2023-07-31T05:11:03;99169.16;;;19.61;89.36
70488;BME280;57976;48.174;16.370;2023-07-31T05:13:08;99169.67;;;19.64;89.34
70488;BME280;57976;48.174;16.370;2023-07-31T05:15:12;99176.92;;;19.70;88.76
70488;BME280;57976;48.174;16.370;2023-07-31T05:17:19;99174.89;;;19.73;88.47
70488;BME280;57976;48.174;16.370;2023-07-31T05:19:24;99175.13;;;19.77;88.60
70488;BME280;57976;48.174;16.370;2023-07-31T05:21:29;99178.34;;;19.82;88.04
70488;BME280;57976;48.174;16.370;2023-07-31T05:23:33;99176.58;;;19.86;87.79
70488;BME280;57976;48.174;16.370;2023-07-31T05:25:38;99174.33;;;19.92;87.53
70488;BME280;57976;48.174;16.370;2023-07-31T05:27:43;99179.09;;;19.94;86.96
70488;BME280;57976;48.174;16.370;2023-07-31T05:29:47;99182.08;;;19.96;86.35
70488;BME280;57976;48.174;16.370;2023-07-31T05:31:52;99183.21;;;19.95;85.80
70488;BME280;57976;48.174;16.370;2023-07-31T05:33:57;99183.14;;;19.95;85.89
70488;BME280;57976;48.174;16.370;2023-07-31T05:36:02;99186.09;;;19.99;86.04
70488;BME280;57976;48.174;16.370;2023-07-31T05:38:06;99191.63;;;20.04;85.25
70488;BME280;57976;48.174;16.370;2023-07-31T05:40:13;99190.40;;;20.10;84.99
70488;BME280;57976;48.174;16.370;2023-07-31T05:42:18;99191.34;;;20.15;83.75
70488;BME280;57976;48.174;16.370;2023-07-31T05:44:23;99193.84;;;20.18;83.13
70488;BME280;57976;48.174;16.370;2023-07-31T05:46:27;99189.14;;;20.20;82.68
70488;BME280;57976;48.174;16.370;2023-07-31T05:48:33;99193.44;;;20.22;81.58
70488;BME280;57976;48.174;16.370;2023-07-31T05:50:37;99188.52;;;20.24;81.26
70488;BME280;57976;48.174;16.370;2023-07-31T05:52:42;99185.51;;;20.27;81.54
70488;BME280;57976;48.174;16.370;2023-07-31T05:54:47;99189.09;;;20.33;81.11
70488;BME280;57976;48.174;16.370;2023-07-31T05:56:51;99191.27;;;20.39;80.94
70488;BME280;57976;48.174;16.370;2023-07-31T05:58:56;99189.23;;;20.43;79.78
70488;BME280;57976;48.174;16.370;2023-07-31T06:01:01;99186.41;;;20.46;79.89
70488;BME280;57976;48.174;16.370;2023-07-31T06:03:08;99189.45;;;20.52;80.03
70488;BME280;57976;48.174;16.370;2023-07-31T06:05:13;99189.58;;;20.63;79.24
70488;BME280;57976;48.174;16.370;2023-07-31T06:07:18;99193.96;;;20.71;78.03
70488;BME280;57976;48.174;16.370;2023-07-31T06:09:22;99184.33;;;20.76;78.15
70488;BME280;57976;48.174;16.370;2023-07-31T06:11:27;99185.20;;;20.82;77.73
70488;BME280;57976;48.174;16.370;2023-07-31T06:13:32;99180.44;;;20.92;77.82
70488;BME280;57976;48.174;16.370;2023-07-31T06:15:36;99178.55;;;21.05;77.18
70488;BME280;57976;48.174;16.370;2023-07-31T06:17:41;99181.59;;;21.17;76.48
70488;BME280;57976;48.174;16.370;2023-07-31T06:19:46;99181.25;;;21.29;75.46
70488;BME280;57976;48.174;16.370;2023-07-31T06:21:51;99188.18;;;21.34;73.78
70488;BME280;57976;48.174;16.370;2023-07-31T06:23:55;99188.17;;;21.37;73.25
70488;BME280;57976;48.174;16.370;2023-07-31T06:26:00;99186.91;;;21.38;72.82
70488;BME280;57976;48.174;16.370;2023-07-31T06:28:05;99182.90;;;21.39;73.44
70488;BME280;57976;48.174;16.370;2023-07-31T06:30:11;99188.30;;;21.44;72.86
70488;BME280;57976;48.174;16.370;2023-07-31T06:32:16;99183.81;;;21.46;72.66
70488;BME280;57976;48.174;16.370;2023-07-31T06:34:20;99183.70;;;21.47;71.62
70488;BME280;57976;48.174;16.370;2023-07-31T06:36:25;99178.55;;;21.49;71.45
70488;BME280;57976;48.174;16.370;2023-07-31T06:38:32;99183.91;;;21.49;71.20
70488;BME280;57976;48.174;16.370;2023-07-31T06:40:37;99180.00;;;21.51;71.07
70488;BME280;57976;48.174;16.370;2023-07-31T06:42:41;99187.27;;;21.53;69.30
70488;BME280;57976;48.174;16.370;2023-07-31T06:44:46;99182.38;;;21.51;68.72
70488;BME280;57976;48.174;16.370;2023-07-31T06:46:51;99184.55;;;21.49;66.85
70488;BME280;57976;48.174;16.370;2023-07-31T06:48:56;99173.99;;;21.47;66.77
70488;BME280;57976;48.174;16.370;2023-07-31T06:51:01;99186.73;;;21.48;66.73
70488;BME280;57976;48.174;16.370;2023-07-31T06:53:06;99186.03;;;21.50;66.48
70488;BME280;57976;48.174;16.370;2023-07-31T06:55:19;99178.64;;;21.51;66.43
70488;BME280;57976;48.174;16.370;2023-07-31T06:57:24;99170.88;;;21.56;66.43
70488;BME280;57976;48.174;16.370;2023-07-31T06:59:29;99176.27;;;21.64;66.52
70488;BME280;57976;48.174;16.370;2023-07-31T07:01:34;99180.75;;;21.73;64.34
70488;BME280;57976;48.174;16.370;2023-07-31T07:03:38;99180.13;;;21.78;63.67
70488;BME280;57976;48.174;16.370;2023-07-31T07:05:43;99180.17;;;21.82;63.20
70488;BME280;57976;48.174;16.370;2023-07-31T07:07:50;99180.58;;;21.85;63.04
70488;BME280;57976;48.174;16.370;2023-07-31T07:09:55;99175.08;;;21.90;62.96
70488;BME280;57976;48.174;16.370;2023-07-31T07:12:00;99175.48;;;21.96;62.49
70488;BME280;57976;48.174;16.370;2023-07-31T07:14:04;99175.48;;;22.06;61.38
70488;BME280;57976;48.174;16.370;2023-07-31T07:16:09;99176.80;;;22.14;59.60
70488;BME280;57976;48.174;16.370;2023-07-31T07:18:14;99193.33;;;22.18;57.11
70488;BME280;57976;48.174;16.370;2023-07-31T07:20:19;99178.00;;;22.22;56.90
70488;BME280;57976;48.174;16.370;2023-07-31T07:22:23;99177.05;;;22.28;55.38
70488;BME280;57976;48.174;16.370;2023-07-31T07:24:28;99180.44;;;22.33;54.97
70488;BME280;57976;48.174;16.370;2023-07-31T07:26:33;99190.17;;;22.37;53.17
70488;BME280;57976;48.174;16.370;2023-07-31T07:28:38;99173.49;;;22.39;53.10
70488;BME280;57976;48.174;16.370;2023-07-31T07:30:44;99168.40;;;22.46;52.95
70488;BME280;57976;48.174;16.370;2023-07-31T07:32:49;99174.21;;;22.55;52.90
70488;BME280;57976;48.174;16.370;2023-07-31T07:34:54;99170.02;;;22.61;51.64
70488;BME280;57976;48.174;16.370;2023-07-31T07:36:59;99167.61;;;22.63;51.73
70488;BME280;57976;48.174;16.370;2023-07-31T07:39:04;99166.65;;;22.67;51.64
70488;BME280;57976;48.174;16.370;2023-07-31T07:41:09;99164.18;;;22.71;52.14
70488;BME280;57976;48.174;16.370;2023-07-31T07:43:13;99155.55;;;22.78;52.62
70488;BME280;57976;48.174;16.370;2023-07-31T07:45:18;99164.14;;;22.84;52.60
70488;BME280;57976;48.174;16.370;2023-07-31T07:47:23;99164.12;;;22.88;52.28
70488;BME280;57976;48.174;16.370;2023-07-31T07:49:29;99161.23;;;22.86;52.18
70488;BME280;57976;48.174;16.370;2023-07-31T07:51:34;99163.20;;;22.79;52.28
70488;BME280;57976;48.174;16.370;2023-07-31T07:53:39;99152.56;;;22.77;52.94
70488;BME280;57976;48.174;16.370;2023-07-31T07:55:44;99164.95;;;22.78;52.98
70488;BME280;57976;48.174;16.370;2023-07-31T07:57:49;99155.82;;;22.78;52.79
70488;BME280;57976;48.174;16.370;2023-07-31T07:59:53;99168.95;;;22.71;51.41
70488;BME280;57976;48.174;16.370;2023-07-31T08:01:58;99158.69;;;22.65;51.62
70488;BME280;57976;48.174;16.370;2023-07-31T08:04:03;99161.97;;;22.62;52.79
70488;BME280;57976;48.174;16.370;2023-07-31T08:06:08;99161.48;;;22.61;52.64
70488;BME280;57976;48.174;16.370;2023-07-31T08:08:15;99164.36;;;22.59;52.60
70488;BME280;57976;48.174;16.370;2023-07-31T08:10:20;99161.45;;;22.55;52.72
70488;BME280;57976;48.174;16.370;2023-07-31T08:12:25;99158.79;;;22.55;53.05
70488;BME280;57976;48.174;16.370;2023-07-31T08:14:30;99148.79;;;22.56;53.40
70488;BME280;57976;48.174;16.370;2023-07-31T08:16:36;99151.66;;;22.56;53.15
70488;BME280;57976;48.174;16.370;2023-07-31T08:18:42;99155.31;;;22.55;51.75
70488;BME280;57976;48.174;16.370;2023-07-31T08:20:47;99154.56;;;22.52;51.72
70488;BME280;57976;48.174;16.370;2023-07-31T08:22:51;99153.46;;;22.54;51.71
70488;BME280;57976;48.174;16.370;2023-07-31T08:24:56;99157.75;;;22.56;52.26
70488;BME280;57976;48.174;16.370;2023-07-31T08:27:01;99161.16;;;22.60;51.51
70488;BME280;57976;48.174;16.370;2023-07-31T08:29:05;99166.21;;;22.62;52.11
70488;BME280;57976;48.174;16.370;2023-07-31T08:31:10;99160.98;;;22.63;51.82
70488;BME280;57976;48.174;16.370;2023-07-31T08:33:15;99158.04;;;22.63;52.80
70488;BME280;57976;48.174;16.370;2023-07-31T08:35:20;99156.29;;;22.66;53.40
70488;BME280;57976;48.174;16.370;2023-07-31T08:37:25;99153.02;;;22.73;53.21
70488;BME280;57976;48.174;16.370;2023-07-31T08:39:29;99158.38;;;22.78;52.65
70488;BME280;57976;48.174;16.370;2023-07-31T08:41:38;99154.13;;;22.81;52.21
70488;BME280;57976;48.174;16.370;2023-07-31T08:43:43;99144.35;;;22.85;51.39
70488;BME280;57976;48.174;16.370;2023-07-31T08:45:49;99143.45;;;22.89;50.98
70488;BME280;57976;48.174;16.370;2023-07-31T08:47:54;99143.86;;;22.97;50.27
70488;BME280;57976;48.174;16.370;2023-07-31T08:50:00;99156.29;;;23.10;48.49
70488;BME280;57976;48.174;16.370;2023-07-31T08:52:07;99157.02;;;23.19;46.70
70488;BME280;57976;48.174;16.370;2023-07-31T08:54:12;99152.52;;;23.24;46.44
70488;BME280;57976;48.174;16.370;2023-07-31T08:56:17;99153.84;;;23.27;46.67
70488;BME280;57976;48.174;16.370;2023-07-31T08:58:22;99153.02;;;23.27;46.76
70488;BME280;57976;48.174;16.370;2023-07-31T09:00:28;99141.95;;;23.31;48.03
70488;BME280;57976;48.174;16.370;2023-07-31T09:02:37;99142.03;;;23.41;48.52
70488;BME280;57976;48.174;16.370;2023-07-31T09:04:42;99138.39;;;23.46;48.69
70488;BME280;57976;48.174;16.370;2023-07-31T09:06:48;99135.96;;;23.49;48.86
70488;BME280;57976;48.174;16.370;2023-07-31T09:08:53;99137.32;;;23.54;48.66
70488;BME280;57976;48.174;16.370;2023-07-31T09:11:00;99133.31;;;23.57;48.11
70488;BME280;57976;48.174;16.370;2023-07-31T09:13:07;99139.90;;;23.56;47.61
70488;BME280;57976;48.174;16.370;2023-07-31T09:15:17;99128.65;;;23.60;47.57
70488;BME280;57976;48.174;16.370;2023-07-31T09:17:39;99126.80;;;23.65;47.32
70488;BME280;57976;48.174;16.370;2023-07-31T09:19:44;99132.74;;;23.63;47.87
70488;BME280;57976;48.174;16.370;2023-07-31T09:21:50;99141.50;;;23.64;47.20
70488;BME280;57976;48.174;16.370;2023-07-31T09:23:55;99139.75;;;23.65;47.20
70488;BME280;57976;48.174;16.370;2023-07-31T09:26:00;99134.16;;;23.68;47.92
70488;BME280;57976;48.174;16.370;2023-07-31T09:28:06;99129.39;;;23.75;48.83
70488;BME280;57976;48.174;16.370;2023-07-31T09:30:12;99131.59;;;23.91;48.75
70488;BME280;57976;48.174;16.370;2023-07-31T09:32:18;99133.20;;;24.00;48.28
70488;BME280;57976;48.174;16.370;2023-07-31T09:34:30;99144.73;;;24.05;47.35
70488;BME280;57976;48.174;16.370;2023-07-31T09:36:41;99144.70;;;23.99;47.04
70488;BME280;57976;48.174;16.370;2023-07-31T09:38:46;99142.72;;;23.92;46.98
70488;BME280;57976;48.174;16.370;2023-07-31T09:40:50;99143.82;;;23.91;47.40
70488;BME280;57976;48.174;16.370;2023-07-31T09:42:58;99132.81;;;23.88;47.47
70488;BME280;57976;48.174;16.370;2023-07-31T09:45:13;99127.61;;;23.86;48.25
70488;BME280;57976;48.174;16.370;2023-07-31T09:47:25;99128.13;;;23.89;47.57
70488;BME280;57976;48.174;16.370;2023-07-31T09:49:31;99120.01;;;23.93;47.56
70488;BME280;57976;48.174;16.370;2023-07-31T09:51:36;99123.25;;;24.04;47.02
70488;BME280;57976;48.174;16.370;2023-07-31T09:53:41;99112.25;;;24.13;46.81
70488;BME280;57976;48.174;16.370;2023-07-31T09:55:54;99111.29;;;24.28;46.78
70488;BME280;57976;48.174;16.370;2023-07-31T09:58:01;99117.73;;;24.40;45.68
70488;BME280;57976;48.174;16.370;2023-07-31T10:00:09;99115.35;;;24.47;44.79
70488;BME280;57976;48.174;16.370;2023-07-31T10:02:22;99105.52;;;24.50;44.72
70488;BME280;57976;48.174;16.370;2023-07-31T10:04:29;99106.46;;;24.53;43.80
70488;BME280;57976;48.174;16.370;2023-07-31T10:06:35;99100.45;;;24.55;44.09
70488;BME280;57976;48.174;16.370;2023-07-31T10:08:41;99104.49;;;24.60;44.04
70488;BME280;57976;48.174;16.370;2023-07-31T10:10:50;99107.52;;;24.64;44.13
70488;BME280;57976;48.174;16.370;2023-07-31T10:12:55;99103.15;;;24.66;43.78
70488;BME280;57976;48.174;16.370;2023-07-31T10:15:01;99093.66;;;24.70;44.10
70488;BME280;57976;48.174;16.370;2023-07-31T10:17:07;99093.86;;;24.70;44.19
70488;BME280;57976;48.174;16.370;2023-07-31T10:19:12;99094.58;;;24.70;44.19
70488;BME280;57976;48.174;16.370;2023-07-31T10:21:17;99087.23;;;24.68;44.40
70488;BME280;57976;48.174;16.370;2023-07-31T10:23:23;99083.19;;;24.77;44.69
70488;BME280;57976;48.174;16.370;2023-07-31T10:25:28;99079.76;;;24.90;45.05
70488;BME280;57976;48.174;16.370;2023-07-31T10:27:36;99075.24;;;24.98;45.02
70488;BME280;57976;48.174;16.370;2023-07-31T10:29:44;99067.71;;;25.10;44.90
70488;BME280;57976;48.174;16.370;2023-07-31T10:31:49;99074.73;;;25.16;43.19
70488;BME280;57976;48.174;16.370;2023-07-31T10:33:55;99069.05;;;25.17;42.60
70488;BME280;57976;48.174;16.370;2023-07-31T10:36:18;99069.48;;;25.18;42.80
70488;BME280;57976;48.174;16.370;2023-07-31T10:38:33;99066.85;;;25.21;43.70
70488;BME280;57976;48.174;16.370;2023-07-31T10:40:38;99062.06;;;25.26;43.93
70488;BME280;57976;48.174;16.370;2023-07-31T10:42:48;99056.94;;;25.26;44.01
70488;BME280;57976;48.174;16.370;2023-07-31T10:44:59;99049.07;;;25.29;44.23
70488;BME280;57976;48.174;16.370;2023-07-31T10:47:04;99053.21;;;25.32;43.76
70488;BME280;57976;48.174;16.370;2023-07-31T10:49:09;99047.50;;;25.34;43.81
70488;BME280;57976;48.174;16.370;2023-07-31T10:51:14;99047.58;;;25.35;43.74
70488;BME280;57976;48.174;16.370;2023-07-31T10:53:25;99047.45;;;25.38;43.07
70488;BME280;57976;48.174;16.370;2023-07-31T10:55:32;99032.87;;;25.40;43.26
70488;BME280;57976;48.174;16.370;2023-07-31T10:57:37;99033.69;;;25.43;42.69
70488;BME280;57976;48.174;16.370;2023-07-31T10:59:42;99026.21;;;25.44;43.16
70488;BME280;57976;48.174;16.370;2023-07-31T11:01:54;99021.95;;;25.52;43.32
70488;BME280;57976;48.174;16.370;2023-07-31T11:03:59;99023.34;;;25.63;42.46
70488;BME280;57976;48.174;16.370;2023-07-31T11:06:04;99015.85;;;25.69;42.52
70488;BME280;57976;48.174;16.370;2023-07-31T11:08:13;99024.42;;;25.71;41.00